createdAt,value
2023-01-01T00:01:23.412Z,95022.59
2023-01-01T00:03:53.969Z,95021.97
2023-01-01T00:06:20.884Z,95027.56
2023-01-01T00:08:48.373Z,95028.38
2023-01-01T00:11:20.335Z,95028.22
2023-01-01T00:13:47.792Z,95019.31
2023-01-01T00:16:15.050Z,95013.09
2023-01-01T00:18:41.989Z,95018.56
2023-01-01T00:21:13.510Z,95026.50
2023-01-01T00:23:41.683Z,95019.16
2023-01-01T00:26:16.199Z,95017.13
2023-01-01T00:28:44.711Z,95015.28
2023-01-01T00:31:13.152Z,95014.97
2023-01-01T00:33:40.799Z,95019.75
2023-01-01T00:36:13.736Z,95027.88
2023-01-01T00:38:45.547Z,95009.97
2023-01-01T00:41:15.662Z,95006.84
2023-01-01T00:43:42.739Z,95015.91
2023-01-01T00:46:10.011Z,95014.03
2023-01-01T00:48:38.336Z,95016.06
2023-01-01T00:51:11.133Z,95000.47
2023-01-01T00:53:38.274Z,95011.38
2023-01-01T00:56:06.106Z,94996.56
2023-01-01T00:58:33.159Z,95000.28
2023-01-01T01:01:00.402Z,95007.75
2023-01-01T01:03:29.997Z,95001.53
2023-01-01T01:06:16.075Z,95001.88
2023-01-01T01:08:44.915Z,94998.44
2023-01-01T01:11:16.505Z,95011.53
2023-01-01T01:13:44.060Z,95004.34
2023-01-01T01:16:14.739Z,95006.91
2023-01-01T01:18:41.939Z,95004.13
2023-01-01T01:21:09.757Z,95007.59
2023-01-01T01:23:36.524Z,95001.66
2023-01-01T01:26:26.966Z,94997.59
2023-01-01T01:28:53.640Z,95012.03
2023-01-01T01:31:21.403Z,95014.53
2023-01-01T01:33:48.662Z,95011.31
2023-01-01T01:36:20.952Z,95009.59
2023-01-01T01:38:48.047Z,95017.75
2023-01-01T01:41:27.785Z,95011.25
2023-01-01T01:44:39.654Z,95012.47
2023-01-01T01:47:07.810Z,95020.06
2023-01-01T01:49:35.746Z,95013.34
2023-01-01T01:52:02.675Z,95009.00
2023-01-01T01:54:29.891Z,95016.00
2023-01-01T01:57:01.488Z,95025.97
2023-01-01T01:59:31.905Z,95039.69
2023-01-01T02:02:01.786Z,95043.38
2023-01-01T02:04:28.920Z,95044.22
2023-01-01T02:06:55.952Z,95047.75
2023-01-01T02:09:28.992Z,95052.94
2023-01-01T02:11:56.991Z,95040.78
2023-01-01T02:14:24.085Z,95051.59
2023-01-01T02:16:57.814Z,95057.06
2023-01-01T02:19:39.047Z,95066.53
2023-01-01T02:22:36.857Z,95061.69
2023-01-01T02:25:23.566Z,95055.22
2023-01-01T02:28:15.744Z,95062.97
2023-01-01T02:30:42.908Z,95060.84
2023-01-01T02:33:12.249Z,95067.75
2023-01-01T02:35:59.000Z,95058.25
2023-01-01T02:38:41.496Z,95063.56
2023-01-01T02:41:13.064Z,95068.81
2023-01-01T02:43:39.896Z,95068.97
2023-01-01T02:46:10.688Z,95066.59
2023-01-01T02:48:42.531Z,95071.66
2023-01-01T02:51:45.775Z,95081.88
2023-01-01T02:54:24.640Z,95073.16
2023-01-01T02:57:18.937Z,95074.41
2023-01-01T03:00:11.771Z,95074.94
2023-01-01T03:03:16.904Z,95081.59
2023-01-01T03:06:23.832Z,95080.53
2023-01-01T03:09:29.536Z,95081.78
2023-01-01T03:12:20.515Z,95075.41
2023-01-01T03:15:01.546Z,95084.75
2023-01-01T03:17:41.470Z,95074.38
2023-01-01T03:20:15.818Z,95072.13
2023-01-01T03:22:48.005Z,95076.88
2023-01-01T03:25:17.147Z,95083.47
2023-01-01T03:27:49.236Z,95089.06
2023-01-01T03:30:19.779Z,95080.94
2023-01-01T03:32:52.220Z,95079.16
2023-01-01T03:35:21.966Z,95081.66
2023-01-01T03:37:49.606Z,95080.41
2023-01-01T03:40:17.926Z,95085.28
2023-01-01T03:42:48.995Z,95092.94
2023-01-01T03:45:44.657Z,95095.66
2023-01-01T03:48:31.329Z,95094.88
2023-01-01T03:51:08.705Z,95103.53
2023-01-01T03:53:59.415Z,95097.13
2023-01-01T03:56:38.099Z,95103.09
2023-01-01T03:59:12.724Z,95105.13
2023-01-01T04:01:48.605Z,95113.91
2023-01-01T04:04:15.846Z,95108.97
2023-01-01T04:06:42.800Z,95112.19
2023-01-01T04:09:21.418Z,95098.44
2023-01-01T04:11:54.807Z,95095.03
2023-01-01T04:14:48.809Z,95088.84
2023-01-01T04:17:18.528Z,95091.47
2023-01-01T04:20:03.789Z,95096.06
2023-01-01T04:22:30.918Z,95097.44
2023-01-01T04:24:59.843Z,95100.97
2023-01-01T04:27:26.803Z,95105.31
2023-01-01T04:29:53.807Z,95104.63
2023-01-01T04:32:20.771Z,95102.97
2023-01-01T04:34:47.764Z,95111.06
2023-01-01T04:37:15.949Z,95108.56
2023-01-01T04:39:42.884Z,95122.69
2023-01-01T04:42:09.605Z,95118.78
2023-01-01T04:44:37.362Z,95112.31
2023-01-01T04:47:04.657Z,95120.91
2023-01-01T04:49:31.713Z,95112.56
2023-01-01T04:51:58.623Z,95116.97
2023-01-01T04:54:25.537Z,95112.41
2023-01-01T04:56:55.537Z,95107.16
2023-01-01T04:59:22.769Z,95112.38
2023-01-01T05:01:51.388Z,95116.09
2023-01-01T05:04:19.104Z,95105.09
2023-01-01T05:06:46.187Z,95107.56
2023-01-01T05:09:18.934Z,95114.56
2023-01-01T05:11:51.627Z,95115.50
2023-01-01T05:14:18.665Z,95122.00
2023-01-01T05:16:47.850Z,95131.53
2023-01-01T05:19:14.765Z,95123.00
2023-01-01T05:21:41.705Z,95111.22
2023-01-01T05:24:09.616Z,95121.44
2023-01-01T05:26:43.043Z,95115.09
2023-01-01T05:29:15.997Z,95124.81
2023-01-01T05:31:44.043Z,95122.66
2023-01-01T05:34:11.196Z,95122.84
2023-01-01T05:36:38.810Z,95129.41
2023-01-01T05:39:10.267Z,95136.94
2023-01-01T05:41:37.378Z,95130.28
2023-01-01T05:44:05.475Z,95139.34
2023-01-01T05:46:32.176Z,95136.06
2023-01-01T05:49:01.882Z,95125.09
2023-01-01T05:51:29.531Z,95128.75
2023-01-01T05:54:02.235Z,95137.06
2023-01-01T05:56:28.991Z,95131.34
2023-01-01T05:58:56.515Z,95133.84
2023-01-01T06:01:27.733Z,95130.59
2023-01-01T06:03:55.613Z,95134.63
2023-01-01T06:06:42.193Z,95137.38
2023-01-01T06:09:14.945Z,95125.91
2023-01-01T06:11:41.876Z,95137.06
2023-01-01T06:14:11.381Z,95138.38
2023-01-01T06:16:38.141Z,95137.72
2023-01-01T06:19:05.061Z,95146.06
2023-01-01T06:21:32.091Z,95134.16
2023-01-01T06:24:00.713Z,95144.44
2023-01-01T06:26:31.631Z,95128.91
2023-01-01T06:28:58.910Z,95134.16
2023-01-01T06:31:25.991Z,95131.59
2023-01-01T06:33:54.336Z,95136.16
2023-01-01T06:36:27.301Z,95145.94
2023-01-01T06:38:55.302Z,95139.25
2023-01-01T06:41:23.797Z,95131.78
2023-01-01T06:43:51.007Z,95137.34
2023-01-01T06:46:33.453Z,95140.19
2023-01-01T06:49:04.768Z,95144.97
2023-01-01T06:51:40.943Z,95142.59
2023-01-01T06:54:12.996Z,95145.63
2023-01-01T06:56:40.088Z,95149.28
2023-01-01T06:59:07.108Z,95141.94
2023-01-01T07:01:36.847Z,95146.38
2023-01-01T07:04:05.799Z,95149.28
2023-01-01T07:06:33.900Z,95141.31
2023-01-01T07:09:01.024Z,95140.41
2023-01-01T07:11:29.711Z,95143.22
2023-01-01T07:13:59.362Z,95142.56
2023-01-01T07:16:26.450Z,95147.00
2023-01-01T07:18:58.415Z,95145.69
2023-01-01T07:21:29.411Z,95149.91
2023-01-01T07:24:03.223Z,95156.34
2023-01-01T07:26:32.339Z,95155.16
2023-01-01T07:29:06.365Z,95155.44
2023-01-01T07:31:37.931Z,95156.16
2023-01-01T07:34:08.154Z,95151.81
2023-01-01T07:36:38.001Z,95147.97
2023-01-01T07:39:06.512Z,95139.19
2023-01-01T07:41:35.548Z,95147.00
2023-01-01T07:44:02.665Z,95144.88
2023-01-01T07:46:29.591Z,95142.88
2023-01-01T07:48:56.603Z,95150.66
2023-01-01T07:51:23.804Z,95146.66
2023-01-01T07:53:53.438Z,95154.81
2023-01-01T07:56:21.306Z,95158.31
2023-01-01T07:58:48.389Z,95152.81
2023-01-01T08:01:15.266Z,95152.03
2023-01-01T08:03:42.272Z,95151.34
2023-01-01T08:06:12.789Z,95157.84
2023-01-01T08:08:44.735Z,95168.22
2023-01-01T08:11:11.737Z,95159.97
2023-01-01T08:13:41.171Z,95156.84
2023-01-01T08:16:08.178Z,95158.41
2023-01-01T08:18:35.295Z,95159.66
2023-01-01T08:21:03.594Z,95156.84
2023-01-01T08:23:30.766Z,95143.66
2023-01-01T08:26:01.811Z,95155.16
2023-01-01T08:28:31.368Z,95146.44
2023-01-01T08:30:58.527Z,95149.50
2023-01-01T08:33:28.373Z,95149.56
2023-01-01T08:35:55.443Z,95152.81
2023-01-01T08:38:22.251Z,95153.69
2023-01-01T08:40:49.268Z,95149.88
2023-01-01T08:43:21.973Z,95155.63
2023-01-01T08:45:49.427Z,95159.50
2023-01-01T08:48:25.621Z,95154.28
2023-01-01T08:51:00.125Z,95155.28
2023-01-01T08:53:30.205Z,95159.31
2023-01-01T08:56:01.099Z,95151.00
2023-01-01T08:58:35.171Z,95147.91
2023-01-01T09:01:04.923Z,95152.50
2023-01-01T09:03:33.026Z,95151.00
2023-01-01T09:06:00.125Z,95148.78
2023-01-01T09:08:27.286Z,95146.13
2023-01-01T09:11:01.191Z,95144.19
2023-01-01T09:13:28.451Z,95148.53
2023-01-01T09:15:55.479Z,95146.91
2023-01-01T09:18:28.245Z,95153.66
2023-01-01T09:20:55.346Z,95156.91
2023-01-01T09:23:27.105Z,95153.97
2023-01-01T09:25:54.009Z,95150.94
2023-01-01T09:28:25.642Z,95152.31
2023-01-01T09:30:52.896Z,95147.66
2023-01-01T09:33:25.557Z,95148.72
2023-01-01T09:35:55.004Z,95151.97
2023-01-01T09:38:22.497Z,95153.25
2023-01-01T09:41:12.551Z,95140.94
2023-01-01T09:44:05.044Z,95144.69
2023-01-01T09:46:32.527Z,95145.63
2023-01-01T09:49:01.618Z,95149.38
2023-01-01T09:51:31.031Z,95150.44
2023-01-01T09:54:28.355Z,95141.63
2023-01-01T09:56:57.949Z,95137.09
2023-01-01T09:59:26.716Z,95134.75
2023-01-01T10:02:22.545Z,95139.94
2023-01-01T10:05:12.132Z,95134.31
2023-01-01T10:07:50.598Z,95122.81
2023-01-01T10:11:03.144Z,95121.13
2023-01-01T10:13:40.526Z,95115.53
2023-01-01T10:16:18.012Z,95116.75
2023-01-01T10:18:51.331Z,95105.94
2023-01-01T10:21:32.791Z,95109.25
2023-01-01T10:24:47.639Z,95099.63
2023-01-01T10:27:59.551Z,95087.84
2023-01-01T10:30:29.738Z,95093.53
2023-01-01T10:32:56.691Z,95090.00
2023-01-01T10:35:36.066Z,95084.84
2023-01-01T10:38:25.317Z,95084.50
2023-01-01T10:41:13.633Z,95072.22
2023-01-01T10:43:50.336Z,95068.53
2023-01-01T10:46:22.578Z,95068.13
2023-01-01T10:49:11.699Z,95069.50
2023-01-01T10:51:48.972Z,95066.59
2023-01-01T10:54:38.188Z,95066.41
2023-01-01T10:57:21.342Z,95055.81
2023-01-01T10:59:53.901Z,95051.19
2023-01-01T11:02:25.687Z,95051.06
2023-01-01T11:05:19.263Z,95041.66
2023-01-01T11:07:48.170Z,95037.94
2023-01-01T11:10:22.634Z,95045.19
2023-01-01T11:13:06.202Z,95029.31
2023-01-01T11:15:41.631Z,95038.97
2023-01-01T11:18:30.427Z,95030.31
2023-01-01T11:20:58.116Z,95023.03
2023-01-01T11:23:32.589Z,95019.06
2023-01-01T11:26:22.817Z,95016.78
2023-01-01T11:29:21.394Z,95008.13
2023-01-01T11:31:48.263Z,95004.59
2023-01-01T11:34:55.962Z,94998.34
2023-01-01T11:37:30.476Z,94987.25
2023-01-01T11:39:58.863Z,94993.97
2023-01-01T11:42:27.552Z,94986.50
2023-01-01T11:44:56.255Z,94985.25
2023-01-01T11:47:53.387Z,94973.22
2023-01-01T11:50:26.907Z,94970.94
2023-01-01T11:52:57.021Z,94972.31
2023-01-01T11:55:24.049Z,94970.72
2023-01-01T11:58:19.315Z,94972.22
2023-01-01T12:00:54.628Z,94969.59
2023-01-01T12:03:28.066Z,94965.75
2023-01-01T12:06:06.409Z,94964.66
2023-01-01T12:08:39.689Z,94959.59
2023-01-01T12:11:19.254Z,94961.63
2023-01-01T12:13:50.259Z,94957.00
2023-01-01T12:16:20.489Z,94946.03
2023-01-01T12:19:11.597Z,94947.78
2023-01-01T12:21:38.656Z,94939.75
2023-01-01T12:24:09.287Z,94942.13
2023-01-01T12:26:57.825Z,94949.91
2023-01-01T12:30:13.693Z,94941.66
2023-01-01T12:33:08.713Z,94935.50
2023-01-01T12:35:45.050Z,94937.88
2023-01-01T12:38:24.594Z,94930.06
2023-01-01T12:41:12.074Z,94933.94
2023-01-01T12:44:08.012Z,94931.66
2023-01-01T12:46:40.718Z,94928.06
2023-01-01T12:49:42.669Z,94922.53
2023-01-01T12:52:27.949Z,94911.00
2023-01-01T12:55:35.488Z,94917.25
2023-01-01T12:58:11.492Z,94904.72
2023-01-01T13:00:38.229Z,94911.94
2023-01-01T13:04:10.237Z,94910.78
2023-01-01T13:06:52.322Z,94903.44
2023-01-01T13:09:21.113Z,94910.09
2023-01-01T13:11:58.743Z,94906.66
2023-01-01T13:14:30.814Z,94905.66
2023-01-01T13:16:58.332Z,94905.78
2023-01-01T13:19:35.080Z,94905.69
2023-01-01T13:22:27.540Z,94900.94
2023-01-01T13:25:16.175Z,94891.28
2023-01-01T13:28:04.502Z,94896.56
2023-01-01T13:30:38.231Z,94895.94
2023-01-01T13:33:25.062Z,94896.84
2023-01-01T13:36:08.007Z,94892.03
2023-01-01T13:38:57.970Z,94898.03
2023-01-01T13:41:40.060Z,94898.47
2023-01-01T13:44:19.937Z,94895.19
2023-01-01T13:47:13.549Z,94892.75
2023-01-01T13:50:03.389Z,94892.63
2023-01-01T13:53:01.348Z,94906.75
2023-01-01T13:55:50.126Z,94895.00
2023-01-01T13:58:50.356Z,94888.53
2023-01-01T14:01:49.517Z,94891.75
2023-01-01T14:04:33.465Z,94895.00
2023-01-01T14:07:18.811Z,94898.41
2023-01-01T14:09:51.017Z,94890.69
2023-01-01T14:12:19.932Z,94896.75
2023-01-01T14:14:46.953Z,94895.94
2023-01-01T14:17:14.820Z,94902.84
2023-01-01T14:19:42.033Z,94902.63
2023-01-01T14:22:09.237Z,94896.50
2023-01-01T14:24:42.196Z,94899.03
2023-01-01T14:27:08.932Z,94897.91
2023-01-01T14:29:38.682Z,94901.53
2023-01-01T14:32:13.727Z,94908.16
2023-01-01T14:34:43.633Z,94915.13
2023-01-01T14:37:24.271Z,94914.00
2023-01-01T14:40:08.361Z,94917.94
2023-01-01T14:42:37.757Z,94918.41
2023-01-01T14:45:12.862Z,94912.34
2023-01-01T14:47:40.625Z,94919.00
2023-01-01T14:50:17.762Z,94914.34
2023-01-01T14:52:44.797Z,94922.41
2023-01-01T14:55:18.247Z,94938.06
2023-01-01T14:57:46.595Z,94930.47
2023-01-01T15:00:24.812Z,94934.38
2023-01-01T15:03:05.489Z,94940.91
2023-01-01T15:05:35.815Z,94934.81
2023-01-01T15:08:04.853Z,94934.56
2023-01-01T15:10:33.466Z,94931.94
2023-01-01T15:13:00.441Z,94939.59
2023-01-01T15:15:44.317Z,94936.00
2023-01-01T15:18:44.160Z,94942.91
2023-01-01T15:21:41.619Z,94948.22
2023-01-01T15:24:17.649Z,94947.00
2023-01-01T15:26:52.466Z,94958.25
2023-01-01T15:29:29.538Z,94958.44
2023-01-01T15:32:15.561Z,94949.03
2023-01-01T15:34:48.645Z,94945.06
2023-01-01T15:37:44.104Z,94953.16
2023-01-01T15:40:28.784Z,94955.63
2023-01-01T15:43:16.444Z,94962.03
2023-01-01T15:45:54.070Z,94962.38
2023-01-01T15:48:28.299Z,94958.34
2023-01-01T15:50:59.285Z,94952.66
2023-01-01T15:53:26.970Z,94955.06
2023-01-01T15:58:53.364Z,94959.38
2023-01-01T16:01:22.129Z,94963.41
2023-01-01T16:03:51.261Z,94962.34
2023-01-01T16:06:18.855Z,94966.75
2023-01-01T16:08:45.873Z,94966.69
2023-01-01T16:11:18.429Z,94969.78
2023-01-01T16:13:51.916Z,94973.56
2023-01-01T16:16:27.956Z,94970.03
2023-01-01T16:18:56.601Z,94969.72
2023-01-01T16:21:28.047Z,94978.50
2023-01-01T16:24:00.778Z,94966.13
2023-01-01T16:26:27.977Z,94969.41
2023-01-01T16:28:55.018Z,94968.97
2023-01-01T16:31:24.874Z,94975.34
2023-01-01T16:33:56.120Z,94967.44
2023-01-01T16:36:47.432Z,94965.56
2023-01-01T16:39:16.336Z,94968.94
2023-01-01T16:41:43.797Z,94959.94
2023-01-01T16:44:30.665Z,94960.84
2023-01-01T16:47:04.316Z,94966.25
2023-01-01T16:49:31.736Z,94964.06
2023-01-01T16:51:58.756Z,94961.28
2023-01-01T16:54:25.700Z,94968.63
2023-01-01T16:56:53.131Z,94964.72
2023-01-01T16:59:22.865Z,94971.88
2023-01-01T17:01:49.806Z,94970.19
2023-01-01T17:04:19.377Z,94978.44
2023-01-01T17:06:48.317Z,94969.06
2023-01-01T17:09:15.275Z,94968.22
2023-01-01T17:11:42.298Z,94967.84
2023-01-01T17:14:14.973Z,94971.63
2023-01-01T17:16:41.943Z,94960.84
2023-01-01T17:19:15.566Z,94965.69
2023-01-01T17:21:44.693Z,94966.94
2023-01-01T17:24:14.312Z,94965.03
2023-01-01T17:26:44.031Z,94963.38
2023-01-01T17:29:11.103Z,94964.41
2023-01-01T17:31:43.159Z,94972.09
2023-01-01T17:34:13.906Z,94974.03
2023-01-01T17:36:42.338Z,94965.66
2023-01-01T17:39:14.996Z,94962.41
2023-01-01T17:41:45.481Z,94953.75
2023-01-01T17:44:12.578Z,94963.94
2023-01-01T17:46:40.195Z,94969.94
2023-01-01T17:49:07.209Z,94969.16
2023-01-01T17:51:34.742Z,94971.34
2023-01-01T17:54:01.764Z,94971.84
2023-01-01T17:56:33.468Z,94972.63
2023-01-01T17:59:00.533Z,94978.13
2023-01-01T18:01:29.307Z,94983.31
2023-01-01T18:04:00.784Z,94974.84
2023-01-01T18:06:27.757Z,94972.97
2023-01-01T18:08:58.329Z,94973.88
2023-01-01T18:11:25.825Z,94977.81
2023-01-01T18:13:55.197Z,94969.16
2023-01-01T18:16:28.083Z,94971.47
2023-01-01T18:18:55.014Z,94968.00
2023-01-01T18:21:22.457Z,94962.41
2023-01-01T18:23:54.126Z,94963.59
2023-01-01T18:26:21.964Z,94958.19
2023-01-01T18:29:08.526Z,94953.50
2023-01-01T18:31:36.477Z,94953.72
2023-01-01T18:34:03.544Z,94951.56
2023-01-01T18:36:36.277Z,94950.88
2023-01-01T18:39:17.717Z,94942.81
2023-01-01T18:42:29.546Z,94935.88
2023-01-01T18:45:00.696Z,94939.81
2023-01-01T18:47:27.700Z,94941.09
2023-01-01T18:50:03.209Z,94944.56
2023-01-01T18:52:32.686Z,94948.03
2023-01-01T18:55:17.283Z,94946.72
2023-01-01T18:57:48.953Z,94948.22
2023-01-01T19:00:26.334Z,94940.25
2023-01-01T19:03:02.999Z,94932.84
2023-01-01T19:05:34.501Z,94939.66
2023-01-01T19:08:22.579Z,94937.50
2023-01-01T19:11:00.149Z,94936.88
2023-01-01T19:13:34.743Z,94930.63
2023-01-01T19:16:28.313Z,94928.47
2023-01-01T19:19:21.701Z,94932.00
2023-01-01T19:21:52.082Z,94933.44
2023-01-01T19:24:30.115Z,94935.72
2023-01-01T19:27:19.774Z,94934.81
2023-01-01T19:29:52.586Z,94934.81
2023-01-01T19:32:19.744Z,94940.66
2023-01-01T19:34:49.222Z,94936.47
2023-01-01T19:37:19.065Z,94932.69
2023-01-01T19:39:48.635Z,94941.28
2023-01-01T19:42:16.014Z,94941.44
2023-01-01T19:44:43.067Z,94938.84
2023-01-01T19:47:15.961Z,94930.94
2023-01-01T19:49:47.243Z,94935.81
2023-01-01T19:52:16.359Z,94934.25
2023-01-01T19:54:43.286Z,94938.16
2023-01-01T19:57:12.764Z,94930.66
2023-01-01T19:59:42.470Z,94933.31
2023-01-01T20:02:44.172Z,94925.97
2023-01-01T20:04:59.764Z,94930.19
2023-01-01T20:07:26.812Z,94916.91
2023-01-01T20:09:53.930Z,94918.44
2023-01-01T20:12:20.978Z,94920.59
2023-01-01T20:14:47.674Z,94922.91
2023-01-01T20:17:14.665Z,94922.06
2023-01-01T20:19:41.713Z,94924.03
2023-01-01T20:22:08.766Z,94918.44
2023-01-01T20:24:35.797Z,94915.38
2023-01-01T20:27:08.148Z,94904.31
2023-01-01T20:29:35.238Z,94895.41
2023-01-01T20:32:05.429Z,94898.81
2023-01-01T20:34:32.607Z,94892.44
2023-01-01T20:36:59.710Z,94893.75
2023-01-01T20:39:27.620Z,94901.69
2023-01-01T20:41:54.641Z,94894.06
2023-01-01T20:44:26.681Z,94887.50
2023-01-01T20:46:59.414Z,94885.66
2023-01-01T20:49:26.359Z,94886.09
2023-01-01T20:51:53.502Z,94882.00
2023-01-01T20:54:26.180Z,94880.88
2023-01-01T20:56:53.075Z,94885.47
2023-01-01T20:59:37.292Z,94882.94
2023-01-01T21:02:06.334Z,94879.34
2023-01-01T21:04:33.928Z,94887.72
2023-01-01T21:07:00.706Z,94878.34
2023-01-01T21:09:28.118Z,94880.66
2023-01-01T21:11:55.114Z,94888.09
2023-01-01T21:14:22.905Z,94887.09
2023-01-01T21:16:49.952Z,94888.44
2023-01-01T21:19:21.446Z,94896.28
2023-01-01T21:22:02.473Z,94892.09
2023-01-01T21:24:35.501Z,94892.38
2023-01-01T21:27:29.728Z,94889.28
2023-01-01T21:29:57.552Z,94892.47
2023-01-01T21:32:42.645Z,94890.69
2023-01-01T21:35:24.175Z,94897.28
2023-01-01T21:38:18.590Z,94897.28
2023-01-01T21:40:51.030Z,94896.81
2023-01-01T21:43:38.463Z,94899.47
2023-01-01T21:46:16.840Z,94900.72
2023-01-01T21:48:53.512Z,94895.78
2023-01-01T21:52:12.098Z,94900.00
2023-01-01T21:54:39.039Z,94889.66
2023-01-01T21:57:17.432Z,94891.44
2023-01-01T21:59:51.320Z,94894.47
2023-01-01T22:02:37.701Z,94891.06
2023-01-01T22:05:30.092Z,94886.13
2023-01-01T22:08:19.440Z,94893.69
2023-01-01T22:10:46.134Z,94895.06
2023-01-01T22:13:14.761Z,94894.88
2023-01-01T22:15:44.435Z,94894.34
2023-01-01T22:18:22.566Z,94894.81
2023-01-01T22:20:55.493Z,94887.78
2023-01-01T22:23:48.188Z,94897.19
2023-01-01T22:26:26.083Z,94881.09
2023-01-01T22:28:58.954Z,94890.00
2023-01-01T22:31:28.352Z,94890.16
2023-01-01T22:33:55.769Z,94886.25
2023-01-01T22:36:29.344Z,94886.41
2023-01-01T22:39:13.235Z,94893.75
2023-01-01T22:41:47.205Z,94891.41
2023-01-01T22:44:14.319Z,94892.16
2023-01-01T22:46:41.888Z,94888.16
2023-01-01T22:49:16.584Z,94891.44
2023-01-01T22:51:44.478Z,94884.09
2023-01-01T22:54:13.593Z,94888.28
2023-01-01T22:56:40.589Z,94888.47
2023-01-01T22:59:07.599Z,94876.91
2023-01-01T23:01:37.252Z,94880.19
2023-01-01T23:04:04.240Z,94883.41
2023-01-01T23:06:32.009Z,94880.63
2023-01-01T23:08:59.029Z,94873.91
2023-01-01T23:11:27.411Z,94870.03
2023-01-01T23:13:54.623Z,94866.88
2023-01-01T23:16:21.414Z,94869.38
2023-01-01T23:18:48.482Z,94866.34
2023-01-01T23:21:21.477Z,94864.69
2023-01-01T23:23:53.318Z,94869.41
2023-01-01T23:26:20.425Z,94861.34
2023-01-01T23:28:47.595Z,94860.72
2023-01-01T23:31:19.597Z,94848.25
2023-01-01T23:33:51.310Z,94850.75
2023-01-01T23:36:18.317Z,94859.75
2023-01-01T23:38:45.396Z,94850.06
2023-01-01T23:41:14.788Z,94846.00
2023-01-01T23:43:43.786Z,94840.13
2023-01-01T23:46:12.447Z,94848.75
2023-01-01T23:48:40.807Z,94851.09
2023-01-01T23:51:07.805Z,94840.44
2023-01-01T23:53:34.726Z,94848.25
2023-01-01T23:56:01.770Z,94843.59
2023-01-01T23:58:28.870Z,94841.44
